Time;durP1;ratioP1;P1;durP2;ratioP2;P2;SDS_P1;SDS_P2;PMS_P1;PMS_P2;Temp;Humidity;BMP_temperature;BMP_pressure;BME280_temperature;BME280_humidity;BME280_pressure;Samples;Min_cycle;Max_cycle;Signal;HPM_P1;HPM_P2
2022/09/28 00:00:33;;;;;;;65.33;34.77;;;;;;;10.63;100.00;98097.53;4172879;28;20412;-69
2022/09/28 00:02:59;;;;;;;61.47;33.73;;;;;;;10.59;100.00;98100.81;4170355;28;20234;-68
2022/09/28 00:05:26;;;;;;;62.40;35.13;;;;;;;10.63;100.00;98094.03;4160583;28;20234;-68
2022/09/28 00:07:53;;;;;;;60.93;34.53;;;;;;;10.54;100.00;98088.94;4170762;28;20248;-71
2022/09/28 00:10:22;;;;;;;58.07;32.43;;;;;;;10.46;100.00;98093.63;4167059;28;20472;-70
2022/09/28 00:12:50;;;;;;;50.43;27.13;;;;;;;10.41;100.00;98098.72;4158356;28;20292;-69
2022/09/28 00:15:17;;;;;;;52.30;27.73;;;;;;;10.42;100.00;98101.19;4175124;28;20245;-68
2022/09/28 00:17:43;;;;;;;57.63;28.70;;;;;;;10.35;100.00;98100.38;4165914;28;20243;-70
2022/09/28 00:20:11;;;;;;;51.97;28.07;;;;;;;10.33;100.00;98099.75;4156984;28;22458;-69
2022/09/28 00:22:38;;;;;;;54.63;27.90;;;;;;;10.33;100.00;98097.91;4165803;28;20429;-69
2022/09/28 00:25:05;;;;;;;58.40;29.17;;;;;;;10.32;100.00;98090.09;4150988;28;21219;-69
2022/09/28 00:27:32;;;;;;;49.13;23.70;;;;;;;10.30;100.00;98094.81;4153517;28;20249;-69
2022/09/28 00:29:58;;;;;;;35.33;18.47;;;;;;;10.18;100.00;98094.53;4166353;28;20253;-69
2022/09/28 00:32:25;;;;;;;27.27;13.90;;;;;;;10.08;100.00;98102.06;4168524;28;20531;-68
2022/09/28 00:34:52;;;;;;;23.70;11.77;;;;;;;9.97;100.00;98092.84;4163015;28;20463;-69
2022/09/28 00:37:19;;;;;;;20.63;10.10;;;;;;;9.81;100.00;98090.50;4172624;28;25770;-68
2022/09/28 00:39:47;;;;;;;19.30;9.43;;;;;;;9.79;100.00;98100.53;4166428;28;20239;-71
2022/09/28 00:42:19;;;;;;;17.97;9.40;;;;;;;9.63;100.00;98099.84;4167477;28;20465;-70
2022/09/28 00:44:47;;;;;;;22.63;9.77;;;;;;;9.61;100.00;98107.19;4166233;28;20245;-69
2022/09/28 00:47:16;;;;;;;21.37;9.23;;;;;;;9.57;100.00;98103.28;4162664;28;20629;-69
2022/09/28 00:49:48;;;;;;;17.23;9.07;;;;;;;9.54;100.00;98108.97;4164387;28;20257;-69
2022/09/28 00:52:21;;;;;;;13.47;7.40;;;;;;;9.55;100.00;98110.59;4163673;28;24340;-69
2022/09/28 00:54:49;;;;;;;13.80;7.50;;;;;;;9.47;100.00;98106.28;4153170;28;20258;-70
2022/09/28 00:57:16;;;;;;;17.67;7.70;;;;;;;9.47;100.00;98113.44;4160870;28;20662;-69
2022/09/28 00:59:43;;;;;;;14.73;6.67;;;;;;;9.45;100.00;98104.84;4167261;28;20244;-70
2022/09/28 01:02:09;;;;;;;12.23;6.53;;;;;;;9.48;100.00;98109.75;4164904;28;22130;-71
2022/09/28 01:04:37;;;;;;;14.90;6.80;;;;;;;9.44;100.00;98106.69;4158412;28;20603;-69
2022/09/28 01:07:03;;;;;;;14.90;6.43;;;;;;;9.41;100.00;98108.91;4173437;28;20235;-69
2022/09/28 01:09:31;;;;;;;13.67;6.37;;;;;;;9.37;100.00;98107.66;4162512;28;20450;-71
2022/09/28 01:11:57;;;;;;;16.03;6.50;;;;;;;9.39;100.00;98106.47;4166176;28;25895;-71
2022/09/28 01:14:24;;;;;;;10.53;5.60;;;;;;;9.33;100.00;98099.25;4161659;28;20305;-70
2022/09/28 01:17:05;;;;;;;12.47;5.93;;;;;;;9.32;100.00;98097.63;4162532;28;20244;-67
2022/09/28 01:19:50;;;;;;;9.70;5.10;;;;;;;9.37;100.00;98097.88;4163388;28;21971;-71
2022/09/28 01:22:26;;;;;;;10.73;5.30;;;;;;;9.40;100.00;98092.16;4172362;28;21022;-71
2022/09/28 01:25:06;;;;;;;11.40;5.20;;;;;;;9.36;100.00;98095.41;4167960;28;20235;-71
2022/09/28 01:27:43;;;;;;;7.13;4.40;;;;;;;9.31;100.00;98088.00;4172534;28;21143;-72
2022/09/28 01:30:14;;;;;;;9.07;4.10;;;;;;;9.30;100.00;98091.69;4153403;28;20415;-72
2022/09/28 01:32:51;;;;;;;6.80;3.60;;;;;;;9.26;100.00;98077.97;4156276;28;20244;-72
2022/09/28 01:35:42;;;;;;;7.10;3.80;;;;;;;9.20;100.00;98077.94;4153191;28;20383;-72
2022/09/28 01:38:20;;;;;;;7.40;3.77;;;;;;;9.24;100.00;98079.19;4168272;28;20382;-72
2022/09/28 01:40:48;;;;;;;7.70;4.20;;;;;;;9.22;100.00;98079.38;4159116;28;21564;-71
2022/09/28 01:43:19;;;;;;;5.83;3.70;;;;;;;9.18;100.00;98075.50;4158018;28;20275;-71
2022/09/28 01:45:48;;;;;;;11.87;4.43;;;;;;;9.19;100.00;98074.47;4148239;28;22616;-72
2022/09/28 01:48:20;;;;;;;9.90;4.40;;;;;;;9.22;100.00;98067.94;4157117;28;20252;-71
2022/09/28 01:50:50;;;;;;;8.07;4.40;;;;;;;9.24;100.00;98069.41;4160570;28;20334;-73
2022/09/28 01:53:23;;;;;;;16.50;5.50;;;;;;;9.27;100.00;98065.53;4158074;28;20234;-72
2022/09/28 01:55:54;;;;;;;10.67;4.20;;;;;;;9.36;100.00;98063.53;4160821;28;21119;-71
2022/09/28 01:58:27;;;;;;;12.40;5.43;;;;;;;9.30;100.00;98070.47;4161427;28;20304;-72
2022/09/28 02:01:03;;;;;;;9.63;4.70;;;;;;;9.33;100.00;98071.91;4164586;28;20679;-69
2022/09/28 02:03:34;;;;;;;10.27;5.20;;;;;;;9.28;100.00;98078.59;4158272;28;21203;-71
2022/09/28 02:06:15;;;;;;;8.83;5.20;;;;;;;9.29;100.00;98074.97;4159849;28;22305;-69
2022/09/28 02:08:49;;;;;;;12.43;5.60;;;;;;;9.33;100.00;98079.88;4167774;28;20346;-70
2022/09/28 02:11:18;;;;;;;15.07;6.00;;;;;;;9.30;100.00;98087.19;4165350;28;20248;-72
2022/09/28 02:13:48;;;;;;;13.77;5.57;;;;;;;9.25;100.00;98081.66;4159989;28;22076;-70
2022/09/28 02:16:24;;;;;;;11.57;6.10;;;;;;;9.29;100.00;98084.72;4160725;28;20325;-71
2022/09/28 02:18:51;;;;;;;10.70;5.40;;;;;;;9.23;100.00;98085.53;4166591;28;20268;-70
2022/09/28 02:21:28;;;;;;;10.30;5.07;;;;;;;9.25;100.00;98079.00;4150144;28;20390;-71
2022/09/28 02:23:57;;;;;;;11.33;5.00;;;;;;;9.24;100.00;98085.31;4160238;28;20421;-71
2022/09/28 02:26:28;;;;;;;11.27;5.67;;;;;;;9.24;100.00;98081.84;4172844;28;20306;-71
2022/09/28 02:28:54;;;;;;;13.47;5.73;;;;;;;9.22;100.00;98087.34;4161889;28;20238;-71
2022/09/28 02:31:21;;;;;;;10.03;5.67;;;;;;;9.26;100.00;98077.97;4172346;28;20240;-72
2022/09/28 02:33:49;;;;;;;12.37;6.47;;;;;;;9.23;100.00;98078.38;4172833;28;20239;-71
2022/09/28 02:36:16;;;;;;;14.37;6.07;;;;;;;9.29;100.00;98082.06;4170391;28;20422;-71
2022/09/28 02:38:43;;;;;;;13.70;6.10;;;;;;;9.23;100.00;98080.22;4176016;28;20311;-71
2022/09/28 02:41:34;;;;;;;13.67;5.47;;;;;;;9.30;100.00;98081.91;4171535;28;20238;-70
2022/09/28 02:44:38;;;;;;;11.87;6.37;;;;;;;9.31;100.00;98077.41;4185907;28;20284;-70
2022/09/28 02:47:14;;;;;;;12.80;5.87;;;;;;;9.27;100.00;98070.84;4170097;28;22443;-70
2022/09/28 02:49:49;;;;;;;18.33;7.40;;;;;;;9.27;100.00;98077.00;4161114;28;22189;-70
2022/09/28 02:52:43;;;;;;;14.77;7.60;;;;;;;9.38;100.00;98072.13;4153898;28;20604;-69
2022/09/28 02:55:27;;;;;;;20.50;8.20;;;;;;;9.29;100.00;98074.97;4176792;28;20428;-71
2022/09/28 02:58:18;;;;;;;21.30;9.50;;;;;;;9.31;100.00;98074.75;4158544;28;20258;-70
2022/09/28 03:01:08;;;;;;;17.97;8.67;;;;;;;9.35;100.00;98073.34;4158218;28;22895;-71
2022/09/28 03:03:44;;;;;;;21.07;8.73;;;;;;;9.39;100.00;98071.09;4144369;28;20238;-71
2022/09/28 03:06:22;;;;;;;20.00;9.27;;;;;;;9.38;100.00;98077.44;4153308;28;20386;-70
2022/09/28 03:08:53;;;;;;;21.50;10.47;;;;;;;9.40;100.00;98075.41;4160082;28;20342;-72
2022/09/28 03:11:25;;;;;;;19.73;9.83;;;;;;;9.41;100.00;98077.03;4169410;28;20235;-70
2022/09/28 03:13:52;;;;;;;24.87;10.30;;;;;;;9.45;100.00;98075.66;4161462;28;20547;-70
2022/09/28 03:16:19;;;;;;;19.13;9.80;;;;;;;9.52;100.00;98073.84;4151728;28;20425;-69
2022/09/28 03:18:46;;;;;;;23.33;11.27;;;;;;;9.56;100.00;98075.09;4165555;28;20239;-71
2022/09/28 03:21:14;;;;;;;27.67;12.07;;;;;;;9.54;100.00;98077.13;4156553;29;20239;-70
2022/09/28 03:23:40;;;;;;;28.80;12.13;;;;;;;9.58;100.00;98077.56;4156066;28;20239;-70
2022/09/28 03:26:09;;;;;;;23.97;11.33;;;;;;;9.59;100.00;98072.03;4158666;28;20346;-70
2022/09/28 03:28:36;;;;;;;28.73;12.93;;;;;;;9.68;100.00;98076.16;4169265;28;23783;-69
2022/09/28 03:31:03;;;;;;;31.13;13.57;;;;;;;9.61;100.00;98074.50;4163417;28;20233;-71
2022/09/28 03:33:29;;;;;;;34.80;14.73;;;;;;;9.59;100.00;98074.69;4158434;28;21121;-70
2022/09/28 03:35:56;;;;;;;32.10;13.97;;;;;;;9.60;100.00;98079.00;4147586;28;20903;-70
2022/09/28 03:38:22;;;;;;;26.83;14.20;;;;;;;9.53;100.00;98080.81;4170248;28;20352;-71
2022/09/28 03:40:57;;;;;;;33.10;14.90;;;;;;;9.51;100.00;98080.19;4172687;28;20239;-71
2022/09/28 03:43:24;;;;;;;34.40;15.37;;;;;;;9.54;100.00;98081.63;4164007;28;20229;-70
2022/09/28 03:45:55;;;;;;;37.47;17.03;;;;;;;9.56;100.00;98076.94;4150581;28;20261;-70
2022/09/28 03:48:23;;;;;;;35.73;16.23;;;;;;;9.56;100.00;98080.41;4162124;28;21280;-71
2022/09/28 03:50:57;;;;;;;45.50;18.13;;;;;;;9.56;100.00;98075.09;4168464;28;20580;-70
2022/09/28 03:53:24;;;;;;;46.30;19.63;;;;;;;9.61;100.00;98079.81;4165236;28;20246;-71
2022/09/28 03:55:52;;;;;;;42.40;18.20;;;;;;;9.59;100.00;98077.34;4157075;28;20245;-71
2022/09/28 03:58:21;;;;;;;39.33;20.50;;;;;;;9.51;100.00;98074.88;4168418;28;23489;-70
2022/09/28 04:00:48;;;;;;;42.93;20.07;;;;;;;9.50;100.00;98075.88;4167074;28;20238;-71
2022/09/28 04:03:15;;;;;;;40.13;20.83;;;;;;;9.51;100.00;98088.16;4156019;28;23884;-71
2022/09/28 04:05:52;;;;;;;39.70;21.40;;;;;;;9.51;100.00;98081.00;4166955;28;21291;-72
2022/09/28 04:08:19;;;;;;;41.73;22.30;;;;;;;9.27;100.00;98081.44;4160617;28;20313;-71
2022/09/28 04:10:46;;;;;;;41.90;21.07;;;;;;;9.21;100.00;98083.06;4162138;28;20424;-71
2022/09/28 04:13:13;;;;;;;43.33;22.70;;;;;;;9.22;100.00;98090.00;4150085;28;24156;-72
2022/09/28 04:15:39;;;;;;;46.03;23.70;;;;;;;9.17;100.00;98081.81;4149519;28;20233;-70
2022/09/28 04:18:12;;;;;;;52.67;24.33;;;;;;;9.11;100.00;98090.56;4167444;28;20225;-72
2022/09/28 04:20:44;;;;;;;52.10;25.30;;;;;;;9.18;100.00;98091.41;4162952;28;20417;-70
2022/09/28 04:23:11;;;;;;;51.77;24.53;;;;;;;9.13;100.00;98093.00;4165134;28;21520;-71
2022/09/28 04:25:38;;;;;;;50.97;24.53;;;;;;;9.15;100.00;98091.78;4164993;28;20286;-70
2022/09/28 04:30:51;;;;;;;47.00;25.53;;;;;;;8.99;100.00;98079.66;4175152;28;23153;-69
2022/09/28 04:33:17;;;;;;;49.57;25.60;;;;;;;9.03;100.00;98088.84;4156240;28;21564;-70
2022/09/28 04:35:43;;;;;;;51.90;25.20;;;;;;;8.99;100.00;98081.47;4155711;28;20227;-71
2022/09/28 04:38:10;;;;;;;51.03;25.47;;;;;;;8.95;100.00;98083.69;4160489;28;21086;-70
2022/09/28 04:40:36;;;;;;;46.73;23.97;;;;;;;8.92;100.00;98080.59;4146450;28;20300;-72
2022/09/28 04:43:03;;;;;;;42.70;22.93;;;;;;;8.90;100.00;98074.66;4159758;28;23556;-70
2022/09/28 04:45:29;;;;;;;48.17;24.77;;;;;;;8.82;100.00;98078.28;4170988;28;20408;-71
2022/09/28 04:47:56;;;;;;;53.13;25.00;;;;;;;8.85;100.00;98083.22;4163588;28;20334;-70
2022/09/28 04:50:22;;;;;;;49.20;23.33;;;;;;;8.77;100.00;98078.84;4161071;28;20553;-71
2022/09/28 04:52:49;;;;;;;44.30;22.53;;;;;;;8.74;100.00;98089.84;4168602;28;20230;-71
2022/09/28 04:55:16;;;;;;;47.23;23.23;;;;;;;8.72;100.00;98086.56;4178051;28;20238;-73
2022/09/28 04:57:42;;;;;;;49.33;24.27;;;;;;;8.86;100.00;98085.66;4218501;28;20607;-70
2022/09/28 05:00:10;;;;;;;47.80;23.60;;;;;;;8.76;100.00;98079.88;4191180;28;20235;-70
2022/09/28 05:02:36;;;;;;;43.97;24.17;;;;;;;8.74;100.00;98087.19;4208847;28;20394;-70
2022/09/28 05:05:04;;;;;;;47.73;24.30;;;;;;;8.74;100.00;98081.09;4210221;28;20306;-69
2022/09/28 05:07:30;;;;;;;48.07;25.57;;;;;;;8.77;100.00;98086.00;4176333;28;20247;-69
2022/09/28 05:09:57;;;;;;;48.20;24.30;;;;;;;8.85;100.00;98084.03;4173734;28;20319;-69
2022/09/28 05:12:23;;;;;;;46.43;25.13;;;;;;;8.84;100.00;98079.72;4167692;28;20243;-69
2022/09/28 05:14:53;;;;;;;50.47;24.37;;;;;;;8.85;100.00;98085.88;4177121;28;23628;-68
2022/09/28 05:17:19;;;;;;;48.83;25.97;;;;;;;8.88;100.00;98088.13;4179472;28;23207;-67
2022/09/28 05:19:46;;;;;;;51.57;25.57;;;;;;;8.78;100.00;98093.78;4219317;28;22231;-68
2022/09/28 05:22:13;;;;;;;46.73;24.77;;;;;;;8.73;100.00;98087.38;4200672;28;20815;-68
2022/09/28 05:24:45;;;;;;;50.67;24.40;;;;;;;8.64;100.00;98098.13;4188176;28;20373;-69
2022/09/28 05:27:11;;;;;;;46.03;24.83;;;;;;;8.61;100.00;98087.06;4217622;28;20235;-67
2022/09/28 05:29:38;;;;;;;45.67;24.53;;;;;;;8.71;100.00;98092.91;4176986;28;20491;-69
2022/09/28 05:32:04;;;;;;;49.27;26.17;;;;;;;8.70;100.00;98098.38;4179871;28;20819;-68
2022/09/28 05:34:31;;;;;;;45.97;24.50;;;;;;;8.58;100.00;98103.38;4178856;28;21048;-67
2022/09/28 05:36:58;;;;;;;51.73;25.93;;;;;;;8.56;100.00;98100.09;4164588;28;20237;-69
2022/09/28 05:39:24;;;;;;;50.93;24.80;;;;;;;8.57;100.00;98099.06;4163269;28;21683;-67
2022/09/28 05:41:51;;;;;;;46.67;24.53;;;;;;;8.53;100.00;98095.97;4158937;28;22183;-65
2022/09/28 05:44:17;;;;;;;49.80;23.87;;;;;;;8.54;100.00;98099.44;4167945;28;23456;-67
2022/09/28 05:46:44;;;;;;;45.83;23.90;;;;;;;8.53;100.00;98100.47;4167680;28;24746;-66
2022/09/28 05:49:11;;;;;;;45.10;23.97;;;;;;;8.56;100.00;98100.91;4165935;28;22526;-69
2022/09/28 05:51:38;;;;;;;48.60;24.80;;;;;;;8.61;100.00;98100.31;4157087;28;21121;-68
2022/09/28 05:54:04;;;;;;;41.17;23.17;;;;;;;8.62;100.00;98113.41;4166083;28;20658;-66
2022/09/28 05:56:31;;;;;;;44.50;24.33;;;;;;;8.62;100.00;98115.25;4158931;28;20642;-67
2022/09/28 05:58:58;;;;;;;46.67;24.53;;;;;;;8.62;100.00;98120.53;4164089;28;21593;-68
2022/09/28 06:01:25;;;;;;;51.80;25.43;;;;;;;8.63;100.00;98119.53;4160440;28;20413;-70
2022/09/28 06:03:51;;;;;;;49.37;23.57;;;;;;;8.59;100.00;98120.91;4157325;28;20236;-67
2022/09/28 06:06:18;;;;;;;44.60;24.40;;;;;;;8.62;100.00;98118.72;4154834;28;20233;-69
2022/09/28 06:08:47;;;;;;;40.90;22.00;;;;;;;8.52;100.00;98114.72;4181539;28;20318;-67
2022/09/28 06:11:13;;;;;;;40.17;21.80;;;;;;;8.63;100.00;98122.16;4152512;28;20478;-67
2022/09/28 06:13:40;;;;;;;40.60;21.57;;;;;;;8.57;100.00;98120.25;4148037;28;23289;-70
2022/09/28 06:16:07;;;;;;;42.40;23.30;;;;;;;8.68;100.00;98125.06;4166563;28;20242;-68
2022/09/28 06:18:34;;;;;;;45.77;23.53;;;;;;;8.78;100.00;98122.94;4140434;28;20304;-70
2022/09/28 06:21:01;;;;;;;49.67;23.83;;;;;;;8.78;100.00;98120.28;4173216;28;20291;-69
2022/09/28 06:23:28;;;;;;;45.77;24.13;;;;;;;8.78;100.00;98122.94;4167559;28;21168;-69
2022/09/28 06:25:57;;;;;;;39.17;22.57;;;;;;;8.91;100.00;98124.06;4193231;28;20589;-70
2022/09/28 06:28:25;;;;;;;44.27;25.50;;;;;;;8.96;100.00;98132.25;4164031;28;20244;-68
2022/09/28 06:30:52;;;;;;;43.83;23.60;;;;;;;8.90;100.00;98127.69;4160541;28;20230;-68
2022/09/28 06:33:19;;;;;;;39.00;23.20;;;;;;;8.99;100.00;98131.88;4165987;28;20360;-69
2022/09/28 06:35:46;;;;;;;42.73;24.00;;;;;;;8.99;100.00;98132.72;4169713;28;22063;-69
2022/09/28 06:38:13;;;;;;;37.77;23.67;;;;;;;9.07;100.00;98129.09;4171319;28;20234;-69
2022/09/28 06:40:40;;;;;;;38.73;22.23;;;;;;;9.15;100.00;98128.94;4194978;28;20314;-69
2022/09/28 06:43:13;;;;;;;39.40;22.50;;;;;;;9.29;100.00;98133.34;4183999;28;22840;-67
2022/09/28 06:45:41;;;;;;;35.10;20.93;;;;;;;9.43;100.00;98131.56;4237569;28;21096;-67
2022/09/28 06:48:09;;;;;;;32.03;20.77;;;;;;;9.62;100.00;98140.72;4177641;28;20235;-71
2022/09/28 06:50:38;;;;;;;32.87;21.37;;;;;;;9.78;100.00;98142.19;4177569;28;21088;-67
2022/09/28 06:53:08;;;;;;;29.57;18.70;;;;;;;9.71;100.00;98131.53;4179257;28;26201;-65
2022/09/28 06:55:37;;;;;;;29.87;17.93;;;;;;;9.70;100.00;98135.22;4165897;28;20232;-67
2022/09/28 06:58:06;;;;;;;26.80;16.23;;;;;;;9.57;100.00;98137.78;4166528;28;20230;-68
2022/09/28 07:00:34;;;;;;;26.77;16.27;;;;;;;9.42;100.00;98142.41;4155614;28;20242;-71
2022/09/28 07:03:06;;;;;;;31.17;16.70;;;;;;;9.48;100.00;98142.47;4148126;29;20246;-68
2022/09/28 07:05:35;;;;;;;30.03;17.27;;;;;;;9.55;100.00;98142.47;4147167;28;20245;-69
2022/09/28 07:08:03;;;;;;;28.83;16.27;;;;;;;9.72;100.00;98154.44;4151023;28;21115;-67
2022/09/28 07:10:31;;;;;;;25.10;16.43;;;;;;;9.62;100.00;98146.00;4157264;28;20234;-70
2022/09/28 07:13:03;;;;;;;23.10;16.07;;;;;;;9.57;100.00;98156.38;4166688;28;22710;-70
2022/09/28 07:15:31;;;;;;;23.57;15.63;;;;;;;9.59;100.00;98162.31;4157384;28;20232;-69
2022/09/28 07:17:59;;;;;;;22.50;14.97;;;;;;;9.66;100.00;98163.19;4166595;28;21051;-70
2022/09/28 07:20:29;;;;;;;24.10;15.57;;;;;;;9.65;100.00;98163.38;4160599;28;20416;-68
2022/09/28 07:22:58;;;;;;;28.40;16.00;;;;;;;9.68;100.00;98160.34;4168889;28;20237;-70
2022/09/28 07:25:44;;;;;;;22.10;15.20;;;;;;;9.71;100.00;98160.75;4171470;28;20416;-71
2022/09/28 07:28:11;;;;;;;24.30;15.60;;;;;;;9.89;100.00;98162.91;4159329;28;20250;-70
2022/09/28 07:30:37;;;;;;;26.97;15.57;;;;;;;10.09;100.00;98163.00;4199621;28;20923;-70
2022/09/28 07:33:06;;;;;;;27.27;15.53;;;;;;;10.43;100.00;98161.31;4139292;28;22123;-70
2022/09/28 07:35:33;;;;;;;21.97;14.23;;;;;;;10.51;100.00;98161.16;4161221;28;20345;-70
2022/09/28 07:38:02;;;;;;;19.97;12.30;;;;;;;10.41;100.00;98168.66;4188817;28;22827;-73
2022/09/28 07:43:19;;;;;;;19.97;13.00;;;;;;;10.55;100.00;98178.31;4160617;29;21319;-70
2022/09/28 07:45:47;;;;;;;20.17;13.17;;;;;;;10.83;100.00;98172.03;4175029;28;20267;-72
2022/09/28 07:48:15;;;;;;;15.07;10.80;;;;;;;10.75;100.00;98174.91;4159195;28;21134;-72
2022/09/28 07:50:46;;;;;;;16.47;10.10;;;;;;;10.47;100.00;98175.84;4173302;28;22350;-67
2022/09/28 07:53:13;;;;;;;12.07;9.20;;;;;;;11.11;100.00;98179.03;4178762;28;20344;-71
2022/09/28 07:55:39;;;;;;;12.37;8.33;;;;;;;11.63;97.58;98182.69;4213373;28;20245;-68
2022/09/28 07:58:06;;;;;;;14.30;8.47;;;;;;;12.23;95.47;98194.06;4209169;28;20292;-72
2022/09/28 08:00:33;;;;;;;12.10;8.60;;;;;;;11.96;95.53;98193.34;4226191;28;20599;-71
2022/09/28 08:03:01;;;;;;;15.23;8.53;;;;;;;11.30;97.97;98193.38;4166267;28;20267;-70
2022/09/28 08:05:30;;;;;;;14.67;9.23;;;;;;;10.77;100.00;98191.50;4168754;28;20238;-74
2022/09/28 08:07:58;;;;;;;18.40;10.57;;;;;;;10.64;100.00;98196.75;4170964;28;20244;-70
2022/09/28 08:10:25;;;;;;;14.70;9.40;;;;;;;10.69;100.00;98202.28;4190334;28;22829;-70
2022/09/28 08:12:55;;;;;;;17.37;9.00;;;;;;;10.80;100.00;98204.38;4179607;28;20477;-70
2022/09/28 08:15:32;;;;;;;13.07;8.40;;;;;;;10.91;100.00;98195.81;4207609;28;21861;-71
2022/09/28 08:17:59;;;;;;;13.07;9.33;;;;;;;10.74;100.00;98203.31;4158424;28;20526;-72
2022/09/28 08:23:17;;;;;;;18.27;9.37;;;;;;;11.00;100.00;98199.06;4179716;28;20231;-73
2022/09/28 08:25:50;;;;;;;14.43;8.33;;;;;;;11.07;99.13;98207.06;4155968;28;20590;-72
2022/09/28 08:28:17;;;;;;;21.37;8.87;;;;;;;11.15;99.84;98209.56;4167764;28;20311;-73
2022/09/28 08:30:45;;;;;;;10.37;8.30;;;;;;;11.18;99.87;98206.47;4174457;28;20280;-72
2022/09/28 08:33:12;;;;;;;14.77;8.57;;;;;;;11.33;99.11;98204.44;4166839;28;20238;-73
2022/09/28 08:35:42;;;;;;;12.60;8.80;;;;;;;11.49;99.21;98207.69;4185459;28;20237;-74
2022/09/28 08:38:09;;;;;;;11.77;7.87;;;;;;;11.65;97.67;98207.28;4239071;28;20298;-70
2022/09/28 08:40:43;;;;;;;14.67;8.00;;;;;;;11.74;94.96;98203.38;4220455;28;20238;-70
2022/09/28 08:43:48;;;;;;;18.10;8.33;;;;;;;11.81;95.05;98206.84;4191482;28;21648;-72
2022/09/28 08:46:18;;;;;;;12.23;7.93;;;;;;;11.68;93.92;98204.19;4211902;28;22113;-71
2022/09/28 08:48:58;;;;;;;13.00;8.60;;;;;;;11.66;92.78;98202.75;4195803;28;20252;-71
2022/09/28 08:52:04;;;;;;;12.13;8.63;;;;;;;11.63;93.40;98214.66;4186488;29;21110;-70
2022/09/28 08:54:39;;;;;;;14.80;7.80;;;;;;;11.81;91.59;98206.03;4213843;29;20888;-71
2022/09/28 08:57:13;;;;;;;11.13;7.93;;;;;;;12.02;89.13;98211.13;4184807;28;21474;-72
2022/09/28 08:59:53;;;;;;;12.87;7.70;;;;;;;12.15;89.75;98212.13;4152671;28;20421;-67
2022/09/28 09:02:38;;;;;;;13.20;6.87;;;;;;;12.57;88.58;98205.41;4153461;28;20252;-69
2022/09/28 09:05:08;;;;;;;11.13;7.10;;;;;;;12.29;88.47;98208.41;4189803;28;20234;-66
2022/09/28 09:08:23;;;;;;;12.20;7.63;;;;;;;12.38;88.81;98207.13;4196076;28;20556;-69
2022/09/28 09:11:06;;;;;;;10.17;7.73;;;;;;;12.26;87.29;98206.16;4150310;29;20295;-67
2022/09/28 09:13:33;;;;;;;13.27;8.33;;;;;;;12.37;87.72;98200.16;4175675;29;21828;-69
2022/09/28 09:16:23;;;;;;;11.73;6.90;;;;;;;12.58;85.78;98208.91;4193206;28;25713;-67
2022/09/28 09:19:11;;;;;;;11.17;6.90;;;;;;;12.73;85.81;98208.59;4227008;28;20298;-60
2022/09/28 09:21:59;;;;;;;15.13;7.37;;;;;;;12.97;85.35;98213.19;4226571;28;20253;-51
2022/09/28 09:24:43;;;;;;;10.70;6.07;;;;;;;13.22;80.38;98215.88;4212321;28;21715;-69
2022/09/28 09:27:16;;;;;;;10.27;5.90;;;;;;;13.22;77.87;98212.41;4171595;28;20239;-67
2022/09/28 09:29:46;;;;;;;8.57;5.50;;;;;;;13.23;77.66;98214.06;4192934;28;22881;-68
2022/09/28 09:32:31;;;;;;;9.13;6.30;;;;;;;13.49;75.89;98211.19;4188305;28;20314;-68
2022/09/28 09:35:06;;;;;;;14.00;6.37;;;;;;;12.88;79.33;98223.31;4166559;28;20417;-69
2022/09/28 09:37:51;;;;;;;14.40;6.47;;;;;;;12.72;81.20;98210.47;4185659;28;20367;-68
2022/09/28 09:40:35;;;;;;;12.03;5.37;;;;;;;12.62;78.91;98213.59;4154372;28;20841;-68
2022/09/28 09:43:17;;;;;;;9.07;4.70;;;;;;;12.43;79.77;98217.16;4158363;28;20238;-67
2022/09/28 09:45:57;;;;;;;7.17;4.47;;;;;;;12.72;79.33;98221.13;4169405;28;20232;-69
2022/09/28 09:48:29;;;;;;;7.70;5.17;;;;;;;12.78;81.50;98216.78;4167876;28;20240;-68
2022/09/28 09:50:58;;;;;;;8.40;4.87;;;;;;;12.98;79.83;98228.16;4188099;28;20631;-69
2022/09/28 09:53:48;;;;;;;12.90;4.70;;;;;;;13.45;80.74;98228.69;4202244;28;20306;-67
2022/09/28 09:56:45;;;;;;;7.63;4.10;;;;;;;13.58;77.69;98225.09;4182166;28;21902;-69
2022/09/28 09:59:18;;;;;;;7.37;4.20;;;;;;;13.69;73.83;98224.38;4167792;29;20239;-74
2022/09/28 10:01:45;;;;;;;8.33;4.57;;;;;;;13.47;73.41;98231.97;4160497;29;20233;-71
2022/09/28 10:04:18;;;;;;;4.53;3.10;;;;;;;13.41;71.51;98227.47;4207569;28;20232;-72
2022/09/28 10:06:47;;;;;;;6.97;3.20;;;;;;;13.32;72.68;98235.97;4174327;29;20607;-70
2022/09/28 10:09:44;;;;;;;5.73;3.20;;;;;;;13.07;73.44;98237.56;4170903;28;20617;-71
2022/09/28 10:12:15;;;;;;;16.17;3.67;;;;;;;13.10;72.13;98247.81;4190465;28;20242;-69
2022/09/28 10:14:41;;;;;;;8.07;3.27;;;;;;;13.04;71.45;98248.69;4169200;28;20613;-71
2022/09/28 10:17:08;;;;;;;5.00;3.00;;;;;;;12.95;72.74;98247.28;4181821;28;20409;-71
2022/09/28 10:19:35;;;;;;;12.07;3.50;;;;;;;12.95;73.61;98241.16;4167247;28;20238;-70
2022/09/28 10:22:04;;;;;;;5.93;3.33;;;;;;;12.63;76.88;98247.25;4166385;28;20702;-69
2022/09/28 10:24:33;;;;;;;4.77;3.47;;;;;;;12.51;77.89;98232.94;4156299;28;20233;-71
2022/09/28 10:27:05;;;;;;;7.40;3.50;;;;;;;12.59;79.74;98245.22;4168289;28;21819;-71
2022/09/28 10:29:39;;;;;;;5.57;3.60;;;;;;;12.73;79.38;98243.28;4180202;28;21150;-72
2022/09/28 10:32:20;;;;;;;9.80;3.10;;;;;;;12.72;79.28;98241.66;4164744;28;20575;-76
2022/09/28 10:34:47;;;;;;;7.23;3.17;;;;;;;12.78;79.91;98243.47;4181563;28;21486;-72
2022/09/28 10:37:17;;;;;;;6.03;3.00;;;;;;;12.90;78.32;98247.13;4188042;28;20239;-69
2022/09/28 10:39:52;;;;;;;6.63;3.07;;;;;;;12.78;77.76;98246.13;4191893;28;23257;-70
2022/09/28 10:42:28;;;;;;;8.63;4.10;;;;;;;12.79;76.89;98239.78;4161758;28;21073;-71
2022/09/28 10:44:58;;;;;;;5.27;3.53;;;;;;;12.64;77.56;98245.38;4151206;28;20254;-69
2022/09/28 10:47:29;;;;;;;5.63;2.60;;;;;;;12.57;76.60;98248.09;4142465;28;20242;-67
2022/09/28 10:49:55;;;;;;;5.33;2.80;;;;;;;12.54;76.68;98240.50;4152910;28;20242;-68
2022/09/28 10:52:30;;;;;;;6.23;2.50;;;;;;;12.50;78.51;98236.63;4167798;28;20244;-65
2022/09/28 10:54:57;;;;;;;9.03;2.83;;;;;;;12.42;78.41;98244.88;4155016;28;21191;-69
2022/09/28 10:57:35;;;;;;;9.00;3.03;;;;;;;12.14;79.11;98240.63;4153031;28;22436;-70
2022/09/28 11:00:05;;;;;;;5.47;2.90;;;;;;;12.08;79.92;98238.81;4157947;28;20905;-72
2022/09/28 11:02:34;;;;;;;11.50;3.13;;;;;;;12.10;79.95;98242.06;4198886;28;21184;-70
2022/09/28 11:05:04;;;;;;;4.13;2.40;;;;;;;12.29;80.71;98239.56;4181254;28;20305;-72
2022/09/28 11:07:32;;;;;;;7.60;3.30;;;;;;;12.35;80.02;98233.41;4155599;28;25230;-72
2022/09/28 11:09:59;;;;;;;9.03;3.30;;;;;;;12.56;77.19;98235.78;4202668;28;21596;-71
2022/09/28 11:12:42;;;;;;;4.93;2.87;;;;;;;12.66;75.93;98229.97;4210451;28;20652;-70
2022/09/28 11:15:17;;;;;;;5.47;2.33;;;;;;;13.21;73.28;98226.81;4209478;28;20306;-75
2022/09/28 11:17:43;;;;;;;8.70;2.23;;;;;;;13.33;72.12;98235.78;4185621;28;21582;-68
2022/09/28 11:20:32;;;;;;;4.00;2.03;;;;;;;13.24;71.76;98231.69;4193719;28;21500;-73
2022/09/28 11:23:14;;;;;;;8.33;2.90;;;;;;;13.21;72.27;98237.47;4175296;28;21419;-68
2022/09/28 11:25:41;;;;;;;7.77;3.30;;;;;;;13.25;70.38;98241.34;4162353;28;20247;-70
2022/09/28 11:28:23;;;;;;;5.40;2.70;;;;;;;13.07;73.40;98234.91;4171888;28;21086;-70
2022/09/28 11:30:51;;;;;;;7.13;2.50;;;;;;;13.17;74.97;98230.94;4156285;28;20242;-70
2022/09/28 11:33:25;;;;;;;6.20;2.33;;;;;;;13.15;72.64;98233.00;4173401;29;20243;-71
2022/09/28 11:36:07;;;;;;;4.97;2.30;;;;;;;13.11;73.69;98227.28;4157946;28;20354;-71
2022/09/28 11:38:41;;;;;;;6.93;2.20;;;;;;;13.30;72.77;98236.22;4150423;28;20242;-73
2022/09/28 11:41:22;;;;;;;8.33;3.60;;;;;;;13.24;72.85;98226.34;4187558;28;20234;-70
2022/09/28 11:44:11;;;;;;;7.13;2.87;;;;;;;13.44;70.66;98237.75;4178140;28;21510;-69
2022/09/28 11:46:58;;;;;;;6.57;2.97;;;;;;;13.46;72.26;98235.69;4165158;28;20258;-71
2022/09/28 11:49:45;;;;;;;5.93;2.80;;;;;;;13.43;72.45;98244.13;4198100;28;23125;-69